createdAt,value
2019-03-06T00:00:47.214Z,1.40
2019-03-06T00:03:15.882Z,1.62
2019-03-06T00:05:44.515Z,1.57
2019-03-06T00:08:13.140Z,1.80
2019-03-06T00:10:41.811Z,1.85
2019-03-06T00:13:10.640Z,1.22
2019-03-06T00:15:39.279Z,1.30
2019-03-06T00:18:07.892Z,1.12
2019-03-06T00:20:36.589Z,1.30
2019-03-06T00:23:05.218Z,2.25
2019-03-06T00:25:33.808Z,1.55
2019-03-06T00:28:02.533Z,1.60
2019-03-06T00:30:31.160Z,2.17
2019-03-06T00:32:59.653Z,3.50
2019-03-06T00:35:39.134Z,3.10
2019-03-06T00:38:07.767Z,4.33
2019-03-06T00:40:44.666Z,4.72
2019-03-06T00:43:13.220Z,4.15
2019-03-06T00:45:41.842Z,4.75
2019-03-06T00:48:10.513Z,4.90
2019-03-06T00:50:39.138Z,4.47
2019-03-06T00:53:07.633Z,4.62
2019-03-06T00:55:36.167Z,4.15
2019-03-06T00:58:04.796Z,3.37
2019-03-06T01:00:33.421Z,1.30
2019-03-06T01:03:02.103Z,1.05
2019-03-06T01:05:30.711Z,1.40
2019-03-06T01:07:59.271Z,2.05
2019-03-06T01:10:27.794Z,2.27
2019-03-06T01:12:56.427Z,1.52
2019-03-06T01:15:25.143Z,2.47
2019-03-06T01:17:53.822Z,2.25
2019-03-06T01:20:22.376Z,2.30
2019-03-06T01:22:51.001Z,2.35
2019-03-06T01:25:20.862Z,2.30
2019-03-06T01:27:49.422Z,2.45
2019-03-06T01:30:24.852Z,2.72
2019-03-06T01:33:11.237Z,2.85
2019-03-06T01:35:44.529Z,2.83
2019-03-06T01:38:31.349Z,2.55
2019-03-06T01:41:04.395Z,3.15
2019-03-06T01:43:34.591Z,2.83
2019-03-06T01:46:03.218Z,3.37
2019-03-06T01:48:31.895Z,3.27
2019-03-06T01:51:00.529Z,3.22
2019-03-06T01:53:29.102Z,3.45
2019-03-06T01:55:57.691Z,3.67
2019-03-06T01:58:26.431Z,3.77
2019-03-06T02:00:55.339Z,4.10
2019-03-06T02:03:23.940Z,4.15
2019-03-06T02:05:52.508Z,4.17
2019-03-06T02:08:21.134Z,3.92
2019-03-06T02:10:50.011Z,3.58
2019-03-06T02:13:21.551Z,3.62
2019-03-06T02:15:50.216Z,4.17
2019-03-06T02:18:18.893Z,3.52
2019-03-06T02:20:47.752Z,4.08
2019-03-06T02:23:16.393Z,4.25
2019-03-06T02:25:45.055Z,4.47
2019-03-06T02:28:13.576Z,4.75
2019-03-06T02:30:42.286Z,4.60
2019-03-06T02:33:10.938Z,4.33
2019-03-06T02:35:39.648Z,4.08
2019-03-06T02:38:08.147Z,4.55
2019-03-06T02:40:36.673Z,4.53
2019-03-06T02:43:05.301Z,5.53
2019-03-06T02:45:33.927Z,5.80
2019-03-06T02:48:02.536Z,5.97
2019-03-06T02:50:31.095Z,6.40
2019-03-06T02:52:59.783Z,5.67
2019-03-06T02:55:28.465Z,6.07
2019-03-06T02:58:01.325Z,6.15
2019-03-06T03:00:31.603Z,6.42
2019-03-06T03:03:04.461Z,5.40
2019-03-06T03:05:34.596Z,6.58
2019-03-06T03:08:03.430Z,6.25
2019-03-06T03:10:32.124Z,6.53
2019-03-06T03:13:00.981Z,6.35
2019-03-06T03:15:29.549Z,6.67
2019-03-06T03:17:58.209Z,6.58
2019-03-06T03:20:26.837Z,6.65
2019-03-06T03:22:55.400Z,6.80
2019-03-06T03:25:24.086Z,6.50
2019-03-06T03:27:52.711Z,6.42
2019-03-06T03:30:21.446Z,6.40
2019-03-06T03:32:49.975Z,6.42
2019-03-06T03:35:18.608Z,6.75
2019-03-06T03:37:47.271Z,6.25
2019-03-06T03:40:16.503Z,6.75
2019-03-06T03:42:45.130Z,6.83
2019-03-06T03:45:15.678Z,7.12
2019-03-06T03:47:44.356Z,7.30
2019-03-06T03:50:13.186Z,6.67
2019-03-06T03:52:42.097Z,6.85
2019-03-06T03:55:13.059Z,6.83
2019-03-06T03:57:41.624Z,6.17
2019-03-06T04:00:15.257Z,7.12
2019-03-06T04:02:43.925Z,7.62
2019-03-06T04:05:13.054Z,6.62
2019-03-06T04:07:41.556Z,7.35
2019-03-06T04:10:14.774Z,6.75
2019-03-06T04:12:43.409Z,6.83
2019-03-06T04:15:18.623Z,7.40
2019-03-06T04:17:47.298Z,6.97
2019-03-06T04:20:16.942Z,7.47
2019-03-06T04:22:45.634Z,7.42
2019-03-06T04:25:14.368Z,6.87
2019-03-06T04:27:42.964Z,6.03
2019-03-06T04:30:13.869Z,5.87
2019-03-06T04:32:45.384Z,5.87
2019-03-06T04:35:14.462Z,5.95
2019-03-06T04:37:43.021Z,6.10
2019-03-06T04:40:13.900Z,4.78
2019-03-06T04:42:42.575Z,6.50
2019-03-06T04:45:13.681Z,5.00
2019-03-06T04:47:42.239Z,4.92
2019-03-06T04:50:12.213Z,5.78
2019-03-06T04:52:41.320Z,5.85
2019-03-06T04:55:11.250Z,6.35
2019-03-06T04:57:39.780Z,6.50
2019-03-06T05:00:16.933Z,5.85
2019-03-06T05:02:45.531Z,6.45
2019-03-06T05:05:14.156Z,7.70
2019-03-06T05:07:42.794Z,8.65
2019-03-06T05:10:15.235Z,8.30
2019-03-06T05:12:43.806Z,9.68
2019-03-06T05:15:24.012Z,8.35
2019-03-06T05:17:54.278Z,8.10
2019-03-06T05:20:22.919Z,7.53
2019-03-06T05:22:51.519Z,8.23
2019-03-06T05:25:20.015Z,8.60
2019-03-06T05:27:48.701Z,7.50
2019-03-06T05:30:19.156Z,9.18
2019-03-06T05:32:53.767Z,8.88
2019-03-06T05:35:49.718Z,7.83
2019-03-06T05:38:27.502Z,8.53
2019-03-06T05:40:56.102Z,9.55
2019-03-06T05:43:24.750Z,10.55
2019-03-06T05:45:53.376Z,9.03
2019-03-06T05:48:21.923Z,10.78
2019-03-06T05:50:50.486Z,8.40
2019-03-06T05:53:19.114Z,8.50
2019-03-06T05:55:47.785Z,9.03
2019-03-06T05:58:16.281Z,8.65
2019-03-06T06:00:44.784Z,8.90
2019-03-06T06:03:13.480Z,7.42
2019-03-06T06:05:42.110Z,8.55
2019-03-06T06:08:10.598Z,8.78
2019-03-06T06:10:39.151Z,9.43
2019-03-06T06:13:07.792Z,8.55
2019-03-06T06:15:36.414Z,8.38
2019-03-06T06:18:05.092Z,7.72
2019-03-06T06:20:33.721Z,8.73
2019-03-06T06:23:12.937Z,8.88
2019-03-06T06:25:41.426Z,8.63
2019-03-06T06:28:10.063Z,9.28
2019-03-06T06:30:38.730Z,9.65
2019-03-06T06:33:07.569Z,9.48
2019-03-06T06:35:36.050Z,7.97
2019-03-06T06:38:04.766Z,9.15
2019-03-06T06:40:33.353Z,7.95
2019-03-06T06:43:01.857Z,11.03
2019-03-06T06:45:30.419Z,7.87
2019-03-06T06:48:13.125Z,8.28
2019-03-06T06:51:01.260Z,8.80
2019-03-06T06:53:42.317Z,9.93
2019-03-06T06:56:47.588Z,6.92
2019-03-06T06:59:41.732Z,10.72
2019-03-06T07:02:32.575Z,9.15
2019-03-06T07:05:24.484Z,9.18
2019-03-06T07:08:11.051Z,10.00
2019-03-06T07:10:57.297Z,10.88
2019-03-06T07:13:30.497Z,11.43
2019-03-06T07:16:00.767Z,9.28
2019-03-06T07:18:31.037Z,10.40
2019-03-06T07:21:04.377Z,12.05
2019-03-06T07:23:37.208Z,11.22
2019-03-06T07:26:13.549Z,12.00
2019-03-06T07:28:46.765Z,11.12
2019-03-06T07:31:17.042Z,11.97
2019-03-06T07:33:52.906Z,12.35
2019-03-06T07:36:39.374Z,11.78
2019-03-06T07:39:10.522Z,11.50
2019-03-06T07:41:40.661Z,12.78
2019-03-06T07:44:10.942Z,12.23
2019-03-06T07:46:53.011Z,12.25
2019-03-06T07:49:26.177Z,10.20
2019-03-06T07:51:59.430Z,9.88
2019-03-06T07:54:29.710Z,9.98
2019-03-06T07:57:12.000Z,10.43
2019-03-06T07:59:40.640Z,10.82
2019-03-06T08:02:23.750Z,9.53
2019-03-06T08:04:54.083Z,10.38
2019-03-06T08:07:22.655Z,16.52
2019-03-06T08:09:51.701Z,16.67
2019-03-06T08:12:34.066Z,15.10
2019-03-06T08:15:20.911Z,19.02
2019-03-06T08:17:53.787Z,16.90
2019-03-06T08:20:30.103Z,11.08
2019-03-06T08:23:16.633Z,14.05
2019-03-06T08:25:44.491Z,15.75
2019-03-06T08:28:13.503Z,20.75
2019-03-06T08:30:46.925Z,20.82
2019-03-06T08:33:18.533Z,21.68
2019-03-06T08:35:46.000Z,21.23
2019-03-06T08:38:14.636Z,20.00
2019-03-06T08:40:43.309Z,18.48
2019-03-06T08:43:11.892Z,19.17
2019-03-06T08:45:58.307Z,16.95
2019-03-06T08:48:34.473Z,19.15
2019-03-06T08:51:07.773Z,19.15
2019-03-06T08:53:54.337Z,18.07
2019-03-06T08:56:24.597Z,18.02
2019-03-06T08:59:09.933Z,18.65
2019-03-06T09:01:40.249Z,20.27
2019-03-06T09:04:11.353Z,19.95
2019-03-06T09:06:42.722Z,18.05
2019-03-06T09:09:25.454Z,17.98
2019-03-06T09:12:10.762Z,15.85
2019-03-06T09:14:59.269Z,16.25
2019-03-06T09:17:48.992Z,15.08
2019-03-06T09:20:24.768Z,16.97
2019-03-06T09:23:07.148Z,13.95
2019-03-06T09:25:53.964Z,13.03
2019-03-06T09:28:26.928Z,12.40
2019-03-06T09:30:57.071Z,12.82
2019-03-06T09:33:27.299Z,13.05
2019-03-06T09:36:14.036Z,11.78
2019-03-06T09:38:50.365Z,11.45
2019-03-06T09:41:29.367Z,12.28
2019-03-06T09:44:02.342Z,13.08
2019-03-06T09:46:38.690Z,12.35
2019-03-06T09:49:14.749Z,12.60
2019-03-06T09:51:44.979Z,12.70
2019-03-06T09:54:24.451Z,10.55
2019-03-06T09:56:54.745Z,10.60
2019-03-06T09:59:25.061Z,13.68
2019-03-06T10:02:07.013Z,12.75
2019-03-06T10:04:50.963Z,12.25
2019-03-06T10:07:33.171Z,12.47
2019-03-06T10:10:15.489Z,10.55
2019-03-06T10:12:54.808Z,9.68
2019-03-06T10:15:43.483Z,5.10
2019-03-06T10:18:20.071Z,4.40
2019-03-06T10:20:57.910Z,2.12
2019-03-06T10:23:26.605Z,4.90
2019-03-06T10:25:55.180Z,2.95
2019-03-06T10:28:27.784Z,4.00
2019-03-06T10:31:02.132Z,1.92
2019-03-06T10:33:24.534Z,2.90
2019-03-06T10:35:53.689Z,5.37
2019-03-06T10:38:22.187Z,3.92
2019-03-06T10:40:50.681Z,3.72
2019-03-06T10:43:19.357Z,3.60
2019-03-06T10:45:47.986Z,4.00
2019-03-06T10:48:16.617Z,1.50
2019-03-06T10:50:45.294Z,1.72
2019-03-06T10:53:13.948Z,2.17
2019-03-06T10:55:42.584Z,3.17
2019-03-06T10:58:11.261Z,3.20
2019-03-06T11:00:48.216Z,3.75
2019-03-06T11:03:16.878Z,1.52
2019-03-06T11:05:45.755Z,1.05
2019-03-06T11:08:14.993Z,1.07
2019-03-06T11:10:43.777Z,0.70
2019-03-06T11:13:12.911Z,1.20
2019-03-06T11:15:41.994Z,1.15
2019-03-06T11:18:11.197Z,0.80
2019-03-06T11:20:40.837Z,0.50
2019-03-06T11:23:11.112Z,0.50
2019-03-06T11:25:40.789Z,0.50
2019-03-06T11:28:14.284Z,0.40
2019-03-06T11:30:48.782Z,1.32
2019-03-06T11:33:18.912Z,0.60
2019-03-06T11:35:48.256Z,0.90
2019-03-06T11:38:17.033Z,0.82
2019-03-06T11:40:45.869Z,0.50
2019-03-06T11:43:14.600Z,0.70
2019-03-06T11:45:43.872Z,0.50
2019-03-06T11:48:13.199Z,1.20
2019-03-06T11:50:41.831Z,0.60
2019-03-06T11:53:10.708Z,1.00
2019-03-06T11:55:39.440Z,0.40
2019-03-06T11:58:10.609Z,0.50
2019-03-06T12:00:46.488Z,1.37
2019-03-06T12:03:17.655Z,0.50
2019-03-06T12:05:47.081Z,0.60
2019-03-06T12:08:18.174Z,0.62
2019-03-06T12:10:47.304Z,0.50
2019-03-06T12:13:17.437Z,0.50
2019-03-06T12:15:51.386Z,0.60
2019-03-06T12:18:22.846Z,0.60
2019-03-06T12:20:51.571Z,0.60
2019-03-06T12:23:20.482Z,0.72
2019-03-06T12:25:49.206Z,1.17
2019-03-06T12:28:18.147Z,0.50
2019-03-06T12:30:47.183Z,0.60
2019-03-06T12:33:21.427Z,0.57
2019-03-06T12:35:50.155Z,0.50
2019-03-06T12:38:20.256Z,0.50
2019-03-06T12:40:49.130Z,0.50
2019-03-06T12:43:17.789Z,0.50
2019-03-06T12:46:12.166Z,0.78
2019-03-06T12:48:40.796Z,0.70
2019-03-06T12:51:09.425Z,0.60
2019-03-06T12:53:38.024Z,0.60
2019-03-06T12:56:06.933Z,0.40
2019-03-06T12:58:35.562Z,0.50
2019-03-06T13:01:04.988Z,0.45
2019-03-06T13:03:33.553Z,0.88
2019-03-06T13:06:02.118Z,0.70
2019-03-06T13:08:30.792Z,0.88
2019-03-06T13:10:59.534Z,0.40
2019-03-06T13:13:35.440Z,0.68
2019-03-06T13:15:58.604Z,0.68
2019-03-06T13:18:28.034Z,0.50
2019-03-06T13:20:56.616Z,0.50
2019-03-06T13:23:25.463Z,0.40
2019-03-06T13:25:54.379Z,0.40
2019-03-06T13:28:23.022Z,0.40
2019-03-06T13:30:51.632Z,0.30
2019-03-06T13:33:30.926Z,0.40
2019-03-06T13:35:59.608Z,0.40
2019-03-06T13:38:28.275Z,0.40
2019-03-06T13:40:56.839Z,0.40
2019-03-06T13:43:25.519Z,0.42
2019-03-06T13:45:54.152Z,0.40
2019-03-06T13:48:22.721Z,0.40
2019-03-06T13:50:51.420Z,0.40
2019-03-06T13:53:20.747Z,0.30
2019-03-06T13:55:49.451Z,0.45
2019-03-06T13:58:18.921Z,0.40
2019-03-06T14:00:47.551Z,0.40
2019-03-06T14:03:16.129Z,0.53
2019-03-06T14:05:44.814Z,0.45
2019-03-06T14:08:13.428Z,0.50
2019-03-06T14:10:41.988Z,0.60
2019-03-06T14:13:10.524Z,0.60
2019-03-06T14:15:39.155Z,0.50
2019-03-06T14:18:11.399Z,0.55
2019-03-06T14:20:40.108Z,0.70
2019-03-06T14:23:08.946Z,1.12
2019-03-06T14:25:37.606Z,1.15
2019-03-06T14:28:06.587Z,0.40
2019-03-06T14:30:37.424Z,0.80
2019-03-06T14:33:06.154Z,0.30
2019-03-06T14:35:34.998Z,0.50
2019-03-06T14:38:04.504Z,0.40
2019-03-06T14:40:34.043Z,0.70
2019-03-06T14:43:04.971Z,0.30
2019-03-06T14:45:33.603Z,0.40
2019-03-06T14:48:02.337Z,1.15
2019-03-06T14:50:31.002Z,0.50
2019-03-06T14:52:59.812Z,0.30
2019-03-06T14:55:28.442Z,0.40
2019-03-06T14:57:57.164Z,0.50
2019-03-06T15:00:25.735Z,0.40
2019-03-06T15:02:54.375Z,0.40
2019-03-06T15:05:23.538Z,0.40
2019-03-06T15:07:52.379Z,0.53
2019-03-06T15:10:21.506Z,0.50
2019-03-06T15:12:50.184Z,0.50
2019-03-06T15:15:20.901Z,0.70
2019-03-06T15:17:49.564Z,0.47
2019-03-06T15:20:24.033Z,0.60
2019-03-06T15:22:54.172Z,0.50
2019-03-06T15:25:24.896Z,0.60
2019-03-06T15:27:53.670Z,0.70
2019-03-06T15:30:22.676Z,0.42
2019-03-06T15:32:51.301Z,0.72
2019-03-06T15:35:20.551Z,0.90
2019-03-06T15:37:49.388Z,0.50
2019-03-06T15:40:22.355Z,0.50
2019-03-06T15:42:51.320Z,0.50
2019-03-06T15:45:21.727Z,0.60
2019-03-06T15:47:50.456Z,0.30
2019-03-06T15:50:19.418Z,1.00
2019-03-06T15:52:48.148Z,0.78
2019-03-06T15:55:19.692Z,0.95
2019-03-06T15:57:48.570Z,0.60
2019-03-06T16:00:24.218Z,0.50
2019-03-06T16:02:52.889Z,7.58
2019-03-06T16:05:21.684Z,1.50
2019-03-06T16:07:50.316Z,0.75
2019-03-06T16:10:19.055Z,0.80
2019-03-06T16:12:48.723Z,1.02
2019-03-06T16:15:17.351Z,0.88
2019-03-06T16:17:46.026Z,2.00
2019-03-06T16:20:17.384Z,1.07
2019-03-06T16:22:46.592Z,1.90
2019-03-06T16:25:15.617Z,1.70
2019-03-06T16:27:44.484Z,2.77
2019-03-06T16:30:21.912Z,2.52
2019-03-06T16:32:50.770Z,2.67
2019-03-06T16:35:19.483Z,2.90
2019-03-06T16:37:48.212Z,2.80
2019-03-06T16:42:55.137Z,4.28
2019-03-06T16:45:30.983Z,5.08
2019-03-06T16:48:00.556Z,5.87
2019-03-06T16:50:29.200Z,6.58
2019-03-06T16:52:58.095Z,5.65
2019-03-06T16:55:27.752Z,6.22
2019-03-06T16:57:57.371Z,6.75
2019-03-06T17:00:33.617Z,5.95
2019-03-06T17:03:06.247Z,6.80
2019-03-06T17:05:35.464Z,6.97
2019-03-06T17:08:05.199Z,8.10
2019-03-06T17:10:38.692Z,8.78
2019-03-06T17:13:07.529Z,11.93
2019-03-06T17:15:36.338Z,11.97
2019-03-06T17:18:11.054Z,12.82
2019-03-06T17:20:39.686Z,9.68
2019-03-06T17:23:08.363Z,8.25
2019-03-06T17:25:37.027Z,7.65
2019-03-06T17:28:06.139Z,7.72
2019-03-06T17:30:35.885Z,6.08
2019-03-06T17:33:10.192Z,7.12
2019-03-06T17:35:39.391Z,6.20
2019-03-06T17:38:11.040Z,5.85
2019-03-06T17:40:40.145Z,5.78
2019-03-06T17:43:09.200Z,5.28
2019-03-06T17:45:38.133Z,6.25
2019-03-06T17:48:07.968Z,7.60
2019-03-06T17:50:39.597Z,6.72
2019-03-06T17:53:08.530Z,7.83
2019-03-06T17:55:37.235Z,7.85
2019-03-06T17:58:05.866Z,9.10
2019-03-06T18:00:45.931Z,9.03
2019-03-06T18:03:16.191Z,10.88
2019-03-06T18:05:44.993Z,10.80
2019-03-06T18:08:13.699Z,11.95
2019-03-06T18:10:42.537Z,12.18
2019-03-06T18:13:11.648Z,12.78
2019-03-06T18:15:40.318Z,12.40
2019-03-06T18:18:08.948Z,9.80
2019-03-06T18:20:37.647Z,9.63
2019-03-06T18:23:06.325Z,11.53
2019-03-06T18:25:34.959Z,13.48
2019-03-06T18:28:03.672Z,13.45
2019-03-06T18:30:32.484Z,13.78
2019-03-06T18:33:01.049Z,16.12
2019-03-06T18:35:29.967Z,14.68
2019-03-06T18:37:58.707Z,13.13
2019-03-06T18:40:27.816Z,11.25
2019-03-06T18:42:56.452Z,12.70
2019-03-06T18:45:25.212Z,10.60
2019-03-06T18:47:53.851Z,7.50
2019-03-06T18:50:23.650Z,7.10
2019-03-06T18:52:52.579Z,7.10
2019-03-06T18:55:24.004Z,6.55
2019-03-06T18:57:52.719Z,5.72
2019-03-06T19:00:25.539Z,8.45
2019-03-06T19:02:54.266Z,5.70
2019-03-06T19:05:23.065Z,4.28
2019-03-06T19:07:52.326Z,4.67
2019-03-06T19:10:22.276Z,4.55
2019-03-06T19:12:51.257Z,12.00
2019-03-06T19:15:24.688Z,8.90
2019-03-06T19:17:53.423Z,8.75
2019-03-06T19:20:22.644Z,8.83
2019-03-06T19:22:54.986Z,13.15
2019-03-06T19:25:23.944Z,10.65
2019-03-06T19:27:52.648Z,9.43
2019-03-06T19:30:23.321Z,7.87
2019-03-06T19:33:09.999Z,5.95
2019-03-06T19:35:38.632Z,7.75
2019-03-06T19:38:07.513Z,6.75
2019-03-06T19:40:36.181Z,6.55
2019-03-06T19:43:05.070Z,5.37
2019-03-06T19:45:33.801Z,6.65
2019-03-06T19:48:02.432Z,6.33
2019-03-06T19:50:31.128Z,7.62
2019-03-06T19:52:59.805Z,7.37
2019-03-06T19:55:28.506Z,8.35
2019-03-06T19:57:59.114Z,7.90
2019-03-06T20:00:29.808Z,8.38
2019-03-06T20:02:59.107Z,9.83
2019-03-06T20:05:36.076Z,14.40
2019-03-06T20:08:07.910Z,12.60
2019-03-06T20:10:43.035Z,17.48
2019-03-06T20:13:12.367Z,18.30
2019-03-06T20:15:41.813Z,16.57
2019-03-06T20:18:10.957Z,16.82
2019-03-06T20:20:39.937Z,16.12
2019-03-06T20:23:08.770Z,15.43
2019-03-06T20:25:37.440Z,13.03
2019-03-06T20:28:06.237Z,11.38
2019-03-06T20:30:34.973Z,11.75
2019-03-06T20:33:03.901Z,10.10
2019-03-06T20:35:32.610Z,10.85
2019-03-06T20:38:01.844Z,11.40
2019-03-06T20:40:30.577Z,12.37
2019-03-06T20:42:59.210Z,11.53
2019-03-06T20:45:27.843Z,11.70
2019-03-06T20:47:56.608Z,10.88
2019-03-06T20:50:25.245Z,13.50
2019-03-06T20:52:54.085Z,14.40
2019-03-06T20:55:22.771Z,12.28
2019-03-06T20:57:51.742Z,11.30
2019-03-06T21:00:23.625Z,13.28
2019-03-06T21:02:52.371Z,16.07
2019-03-06T21:05:21.190Z,12.25
2019-03-06T21:07:49.923Z,16.82
2019-03-06T21:10:19.317Z,17.73
2019-03-06T21:12:47.945Z,16.02
2019-03-06T21:15:20.854Z,26.75
2019-03-06T21:17:49.578Z,32.75
2019-03-06T21:20:22.224Z,31.80
2019-03-06T21:22:50.953Z,36.08
2019-03-06T21:25:20.722Z,39.13
2019-03-06T21:27:49.635Z,37.78
2019-03-06T21:30:30.762Z,40.60
2019-03-06T21:32:59.460Z,35.17
2019-03-06T21:35:28.089Z,29.12
2019-03-06T21:37:56.701Z,28.35
2019-03-06T21:40:25.347Z,27.42
2019-03-06T21:42:53.998Z,28.20
2019-03-06T21:45:22.879Z,30.40
2019-03-06T21:47:51.590Z,30.52
2019-03-06T21:50:20.713Z,31.68
2019-03-06T21:52:49.324Z,28.12
2019-03-06T21:55:18.253Z,31.95
2019-03-06T21:57:47.374Z,31.95
2019-03-06T22:00:23.761Z,32.48
2019-03-06T22:02:52.463Z,31.42
2019-03-06T22:05:21.205Z,33.50
2019-03-06T22:07:50.773Z,31.85
2019-03-06T22:10:20.039Z,34.03
2019-03-06T22:12:48.608Z,35.45
2019-03-06T22:15:21.998Z,35.95
2019-03-06T22:17:50.632Z,36.48
2019-03-06T22:20:22.126Z,37.55
2019-03-06T22:22:50.675Z,39.30
2019-03-06T22:25:19.497Z,39.50
2019-03-06T22:27:48.269Z,41.77
2019-03-06T22:30:22.835Z,38.92
2019-03-06T22:32:52.017Z,38.15
2019-03-06T22:35:20.781Z,36.80
2019-03-06T22:37:49.390Z,35.88
2019-03-06T22:40:19.504Z,40.10
2019-03-06T22:42:48.481Z,39.88
2019-03-06T22:45:18.715Z,38.98
2019-03-06T22:47:47.352Z,37.20
2019-03-06T22:50:17.029Z,39.70
2019-03-06T22:52:48.637Z,39.45
2019-03-06T22:55:18.372Z,41.05
2019-03-06T22:57:47.036Z,38.08
2019-03-06T23:00:30.635Z,37.05
2019-03-06T23:02:59.370Z,39.20
2019-03-06T23:05:29.794Z,44.30
2019-03-06T23:07:58.389Z,41.58
2019-03-06T23:10:27.108Z,43.35
2019-03-06T23:12:55.591Z,42.85
2019-03-06T23:15:24.273Z,41.37
2019-03-06T23:17:52.911Z,39.75
2019-03-06T23:20:21.555Z,41.58
2019-03-06T23:22:50.102Z,41.68
2019-03-06T23:25:18.662Z,42.33
2019-03-06T23:27:47.292Z,41.25
2019-03-06T23:30:16.971Z,42.27
2019-03-06T23:32:45.711Z,40.48
2019-03-06T23:35:14.293Z,40.38
2019-03-06T23:37:42.956Z,35.15
2019-03-06T23:40:12.197Z,40.45
2019-03-06T23:42:40.827Z,39.05
2019-03-06T23:45:13.405Z,38.60
2019-03-06T23:47:42.226Z,35.20
2019-03-06T23:50:12.262Z,36.13
2019-03-06T23:52:59.053Z,34.83
2019-03-06T23:55:29.435Z,32.63
2019-03-06T23:57:58.346Z,32.35
